sensor_id;sensor_type;location;lat;lon;timestamp;P1;durP1;ratioP1;P2;durP2;ratioP2
23586;SDS011;11971;51.148;4.104;2022-09-29T00:00:19;17.02;;;10.70;;
23586;SDS011;11971;51.148;4.104;2022-09-29T00:02:47;13.95;;;11.23;;
23586;SDS011;11971;51.148;4.104;2022-09-29T00:05:14;15.37;;;10.80;;
23586;SDS011;11971;51.148;4.104;2022-09-29T00:07:42;17.70;;;11.35;;
23586;SDS011;11971;51.148;4.104;2022-09-29T00:10:10;14.03;;;10.40;;
23586;SDS011;11971;51.148;4.104;2022-09-29T00:12:37;16.15;;;10.38;;
23586;SDS011;11971;51.148;4.104;2022-09-29T00:15:05;15.13;;;10.35;;
23586;SDS011;11971;51.148;4.104;2022-09-29T00:17:32;15.32;;;10.40;;
23586;SDS011;11971;51.148;4.104;2022-09-29T00:20:00;16.38;;;9.70;;
23586;SDS011;11971;51.148;4.104;2022-09-29T00:22:27;14.73;;;9.93;;
23586;SDS011;11971;51.148;4.104;2022-09-29T00:24:56;15.77;;;10.70;;
23586;SDS011;11971;51.148;4.104;2022-09-29T00:27:23;12.68;;;9.82;;
23586;SDS011;11971;51.148;4.104;2022-09-29T00:29:50;15.45;;;10.00;;
23586;SDS011;11971;51.148;4.104;2022-09-29T00:32:17;14.30;;;9.50;;
23586;SDS011;11971;51.148;4.104;2022-09-29T00:34:44;13.70;;;9.52;;
23586;SDS011;11971;51.148;4.104;2022-09-29T00:37:11;12.30;;;9.07;;
23586;SDS011;11971;51.148;4.104;2022-09-29T00:39:39;13.13;;;9.23;;
23586;SDS011;11971;51.148;4.104;2022-09-29T00:42:09;12.30;;;9.50;;
23586;SDS011;11971;51.148;4.104;2022-09-29T00:47:31;13.68;;;9.63;;
23586;SDS011;11971;51.148;4.104;2022-09-29T00:50:00;15.27;;;9.90;;
23586;SDS011;11971;51.148;4.104;2022-09-29T00:52:29;13.45;;;9.80;;
23586;SDS011;11971;51.148;4.104;2022-09-29T00:54:59;14.63;;;10.50;;
23586;SDS011;11971;51.148;4.104;2022-09-29T00:57:30;15.68;;;10.52;;
23586;SDS011;11971;51.148;4.104;2022-09-29T00:59:59;14.80;;;9.60;;
23586;SDS011;11971;51.148;4.104;2022-09-29T01:02:27;14.98;;;10.73;;
23586;SDS011;11971;51.148;4.104;2022-09-29T01:04:56;15.52;;;11.10;;
23586;SDS011;11971;51.148;4.104;2022-09-29T01:07:24;14.50;;;10.50;;
23586;SDS011;11971;51.148;4.104;2022-09-29T01:09:53;16.33;;;9.95;;
23586;SDS011;11971;51.148;4.104;2022-09-29T01:12:21;13.70;;;9.68;;
23586;SDS011;11971;51.148;4.104;2022-09-29T01:14:51;14.65;;;10.18;;
23586;SDS011;11971;51.148;4.104;2022-09-29T01:17:18;14.00;;;9.88;;
23586;SDS011;11971;51.148;4.104;2022-09-29T01:19:47;14.18;;;10.00;;
23586;SDS011;11971;51.148;4.104;2022-09-29T01:22:20;12.82;;;10.05;;
23586;SDS011;11971;51.148;4.104;2022-09-29T01:24:57;15.70;;;10.63;;
23586;SDS011;11971;51.148;4.104;2022-09-29T01:30:19;125.80;;;27.38;;
23586;SDS011;11971;51.148;4.104;2022-09-29T01:32:55;13.18;;;10.32;;
23586;SDS011;11971;51.148;4.104;2022-09-29T01:35:25;15.57;;;10.90;;
23586;SDS011;11971;51.148;4.104;2022-09-29T01:37:58;14.73;;;10.60;;
23586;SDS011;11971;51.148;4.104;2022-09-29T01:40:31;44.05;;;39.00;;
23586;SDS011;11971;51.148;4.104;2022-09-29T01:43:02;15.98;;;9.95;;
23586;SDS011;11971;51.148;4.104;2022-09-29T01:45:31;14.32;;;9.70;;
23586;SDS011;11971;51.148;4.104;2022-09-29T01:48:01;15.20;;;10.38;;
23586;SDS011;11971;51.148;4.104;2022-09-29T01:50:31;14.68;;;9.85;;
23586;SDS011;11971;51.148;4.104;2022-09-29T01:53:01;14.43;;;10.57;;
23586;SDS011;11971;51.148;4.104;2022-09-29T01:55:30;17.77;;;11.25;;
23586;SDS011;11971;51.148;4.104;2022-09-29T01:58:00;15.27;;;11.48;;
23586;SDS011;11971;51.148;4.104;2022-09-29T02:00:28;14.07;;;10.63;;
23586;SDS011;11971;51.148;4.104;2022-09-29T02:02:58;14.85;;;10.38;;
23586;SDS011;11971;51.148;4.104;2022-09-29T02:05:29;17.50;;;10.77;;
23586;SDS011;11971;51.148;4.104;2022-09-29T02:08:00;16.70;;;11.20;;
23586;SDS011;11971;51.148;4.104;2022-09-29T02:10:28;14.75;;;9.63;;
23586;SDS011;11971;51.148;4.104;2022-09-29T02:12:57;13.07;;;10.18;;
23586;SDS011;11971;51.148;4.104;2022-09-29T02:15:27;15.93;;;10.10;;
23586;SDS011;11971;51.148;4.104;2022-09-29T02:17:56;13.63;;;9.77;;
23586;SDS011;11971;51.148;4.104;2022-09-29T02:20:25;13.50;;;9.85;;
23586;SDS011;11971;51.148;4.104;2022-09-29T02:22:54;13.68;;;10.18;;
23586;SDS011;11971;51.148;4.104;2022-09-29T02:25:21;14.20;;;10.67;;
23586;SDS011;11971;51.148;4.104;2022-09-29T02:27:49;15.55;;;9.80;;
23586;SDS011;11971;51.148;4.104;2022-09-29T02:30:17;12.68;;;9.68;;
23586;SDS011;11971;51.148;4.104;2022-09-29T02:32:45;14.25;;;9.98;;
23586;SDS011;11971;51.148;4.104;2022-09-29T02:35:12;14.57;;;9.82;;
23586;SDS011;11971;51.148;4.104;2022-09-29T02:37:44;14.02;;;10.00;;
23586;SDS011;11971;51.148;4.104;2022-09-29T02:40:20;15.00;;;10.20;;
23586;SDS011;11971;51.148;4.104;2022-09-29T02:42:52;14.25;;;10.05;;
23586;SDS011;11971;51.148;4.104;2022-09-29T02:45:24;15.67;;;11.20;;
23586;SDS011;11971;51.148;4.104;2022-09-29T02:48:01;17.53;;;11.33;;
23586;SDS011;11971;51.148;4.104;2022-09-29T02:50:39;15.52;;;11.00;;
23586;SDS011;11971;51.148;4.104;2022-09-29T02:53:11;15.25;;;11.25;;
23586;SDS011;11971;51.148;4.104;2022-09-29T02:55:43;16.48;;;11.60;;
23586;SDS011;11971;51.148;4.104;2022-09-29T02:58:15;15.73;;;11.88;;
23586;SDS011;11971;51.148;4.104;2022-09-29T03:00:44;17.00;;;11.87;;
23586;SDS011;11971;51.148;4.104;2022-09-29T03:03:12;18.02;;;12.00;;
23586;SDS011;11971;51.148;4.104;2022-09-29T03:05:39;20.93;;;11.77;;
23586;SDS011;11971;51.148;4.104;2022-09-29T03:08:06;19.02;;;12.10;;
23586;SDS011;11971;51.148;4.104;2022-09-29T03:10:34;15.48;;;11.65;;
23586;SDS011;11971;51.148;4.104;2022-09-29T03:13:02;16.02;;;11.20;;
23586;SDS011;11971;51.148;4.104;2022-09-29T03:15:29;17.05;;;12.23;;
23586;SDS011;11971;51.148;4.104;2022-09-29T03:17:57;14.48;;;11.70;;
23586;SDS011;11971;51.148;4.104;2022-09-29T03:20:24;16.13;;;11.15;;
23586;SDS011;11971;51.148;4.104;2022-09-29T03:22:54;17.98;;;12.48;;
23586;SDS011;11971;51.148;4.104;2022-09-29T03:25:21;16.83;;;12.10;;
23586;SDS011;11971;51.148;4.104;2022-09-29T03:27:49;16.67;;;11.85;;
23586;SDS011;11971;51.148;4.104;2022-09-29T03:30:17;19.92;;;11.80;;
23586;SDS011;11971;51.148;4.104;2022-09-29T03:32:46;16.27;;;11.48;;
23586;SDS011;11971;51.148;4.104;2022-09-29T03:35:14;13.73;;;10.70;;
23586;SDS011;11971;51.148;4.104;2022-09-29T03:37:41;14.48;;;10.52;;
23586;SDS011;11971;51.148;4.104;2022-09-29T03:40:09;17.77;;;12.38;;
23586;SDS011;11971;51.148;4.104;2022-09-29T03:42:36;17.58;;;12.15;;
23586;SDS011;11971;51.148;4.104;2022-09-29T03:45:03;16.30;;;12.48;;
23586;SDS011;11971;51.148;4.104;2022-09-29T03:47:32;16.67;;;11.73;;
23586;SDS011;11971;51.148;4.104;2022-09-29T03:49:59;15.88;;;11.70;;
23586;SDS011;11971;51.148;4.104;2022-09-29T03:52:27;19.85;;;11.02;;
23586;SDS011;11971;51.148;4.104;2022-09-29T03:54:54;15.43;;;10.52;;
23586;SDS011;11971;51.148;4.104;2022-09-29T03:57:21;15.10;;;11.05;;
23586;SDS011;11971;51.148;4.104;2022-09-29T03:59:48;18.02;;;11.73;;
23586;SDS011;11971;51.148;4.104;2022-09-29T04:02:17;17.65;;;12.10;;
23586;SDS011;11971;51.148;4.104;2022-09-29T04:04:46;17.90;;;12.80;;
23586;SDS011;11971;51.148;4.104;2022-09-29T04:07:13;16.42;;;11.68;;
23586;SDS011;11971;51.148;4.104;2022-09-29T04:09:41;16.40;;;13.13;;
23586;SDS011;11971;51.148;4.104;2022-09-29T04:12:08;15.88;;;11.82;;
23586;SDS011;11971;51.148;4.104;2022-09-29T04:14:35;16.00;;;12.38;;
23586;SDS011;11971;51.148;4.104;2022-09-29T04:17:02;16.58;;;12.45;;
23586;SDS011;11971;51.148;4.104;2022-09-29T04:19:29;17.25;;;12.38;;
23586;SDS011;11971;51.148;4.104;2022-09-29T04:21:58;16.77;;;12.30;;
23586;SDS011;11971;51.148;4.104;2022-09-29T04:24:25;19.05;;;12.40;;
23586;SDS011;11971;51.148;4.104;2022-09-29T04:26:52;15.70;;;11.93;;
23586;SDS011;11971;51.148;4.104;2022-09-29T04:29:19;18.77;;;13.00;;
23586;SDS011;11971;51.148;4.104;2022-09-29T04:31:46;16.30;;;12.63;;
23586;SDS011;11971;51.148;4.104;2022-09-29T04:34:14;21.17;;;12.50;;
23586;SDS011;11971;51.148;4.104;2022-09-29T04:36:41;19.05;;;12.68;;
23586;SDS011;11971;51.148;4.104;2022-09-29T04:39:09;17.05;;;12.30;;
23586;SDS011;11971;51.148;4.104;2022-09-29T04:41:37;17.73;;;12.23;;
23586;SDS011;11971;51.148;4.104;2022-09-29T04:44:05;17.08;;;12.45;;
23586;SDS011;11971;51.148;4.104;2022-09-29T04:46:32;20.65;;;13.35;;
23586;SDS011;11971;51.148;4.104;2022-09-29T04:48:59;16.05;;;13.25;;
23586;SDS011;11971;51.148;4.104;2022-09-29T04:51:26;16.42;;;12.00;;
23586;SDS011;11971;51.148;4.104;2022-09-29T04:53:54;16.90;;;12.70;;
23586;SDS011;11971;51.148;4.104;2022-09-29T04:56:22;20.23;;;14.02;;
23586;SDS011;11971;51.148;4.104;2022-09-29T04:58:49;19.77;;;13.63;;
23586;SDS011;11971;51.148;4.104;2022-09-29T05:01:16;23.77;;;15.50;;
23586;SDS011;11971;51.148;4.104;2022-09-29T05:03:44;23.23;;;17.13;;
23586;SDS011;11971;51.148;4.104;2022-09-29T05:06:11;21.70;;;14.88;;
23586;SDS011;11971;51.148;4.104;2022-09-29T05:08:38;19.17;;;13.50;;
23586;SDS011;11971;51.148;4.104;2022-09-29T05:11:05;17.20;;;13.00;;
23586;SDS011;11971;51.148;4.104;2022-09-29T05:13:34;19.05;;;13.35;;
23586;SDS011;11971;51.148;4.104;2022-09-29T05:16:02;21.70;;;15.45;;
23586;SDS011;11971;51.148;4.104;2022-09-29T05:18:29;25.45;;;16.90;;
23586;SDS011;11971;51.148;4.104;2022-09-29T05:21:01;22.88;;;16.40;;
23586;SDS011;11971;51.148;4.104;2022-09-29T05:23:28;23.02;;;16.70;;
23586;SDS011;11971;51.148;4.104;2022-09-29T05:25:59;23.20;;;16.55;;
23586;SDS011;11971;51.148;4.104;2022-09-29T05:28:26;22.77;;;16.88;;
23586;SDS011;11971;51.148;4.104;2022-09-29T05:30:59;23.88;;;16.83;;
23586;SDS011;11971;51.148;4.104;2022-09-29T05:33:26;22.88;;;16.10;;
23586;SDS011;11971;51.148;4.104;2022-09-29T05:35:53;26.65;;;16.88;;
23586;SDS011;11971;51.148;4.104;2022-09-29T05:38:20;21.50;;;15.65;;
23586;SDS011;11971;51.148;4.104;2022-09-29T05:40:48;22.77;;;15.60;;
23586;SDS011;11971;51.148;4.104;2022-09-29T05:43:15;24.90;;;16.77;;
23586;SDS011;11971;51.148;4.104;2022-09-29T05:45:42;21.40;;;15.35;;
23586;SDS011;11971;51.148;4.104;2022-09-29T05:48:11;22.37;;;15.50;;
23586;SDS011;11971;51.148;4.104;2022-09-29T05:50:38;23.52;;;15.50;;
23586;SDS011;11971;51.148;4.104;2022-09-29T05:53:07;23.77;;;16.35;;
23586;SDS011;11971;51.148;4.104;2022-09-29T05:55:34;26.25;;;15.60;;
23586;SDS011;11971;51.148;4.104;2022-09-29T05:58:01;25.02;;;16.63;;
23586;SDS011;11971;51.148;4.104;2022-09-29T06:00:29;23.43;;;16.20;;
23586;SDS011;11971;51.148;4.104;2022-09-29T06:02:57;25.38;;;16.30;;
23586;SDS011;11971;51.148;4.104;2022-09-29T06:05:26;25.37;;;16.00;;
23586;SDS011;11971;51.148;4.104;2022-09-29T06:07:55;28.40;;;18.30;;
23586;SDS011;11971;51.148;4.104;2022-09-29T06:10:22;25.00;;;17.70;;
23586;SDS011;11971;51.148;4.104;2022-09-29T06:12:49;23.95;;;17.27;;
23586;SDS011;11971;51.148;4.104;2022-09-29T06:15:17;22.92;;;15.77;;
23586;SDS011;11971;51.148;4.104;2022-09-29T06:17:44;23.92;;;16.33;;
23586;SDS011;11971;51.148;4.104;2022-09-29T06:20:11;25.17;;;16.70;;
23586;SDS011;11971;51.148;4.104;2022-09-29T06:22:39;24.17;;;18.15;;
23586;SDS011;11971;51.148;4.104;2022-09-29T06:25:07;26.42;;;16.08;;
23586;SDS011;11971;51.148;4.104;2022-09-29T06:27:34;24.00;;;15.73;;
23586;SDS011;11971;51.148;4.104;2022-09-29T06:30:01;24.13;;;17.35;;
23586;SDS011;11971;51.148;4.104;2022-09-29T06:32:28;22.48;;;15.23;;
23586;SDS011;11971;51.148;4.104;2022-09-29T06:34:58;25.83;;;16.08;;
23586;SDS011;11971;51.148;4.104;2022-09-29T06:37:43;23.70;;;17.17;;
23586;SDS011;11971;51.148;4.104;2022-09-29T06:40:12;26.27;;;16.02;;
23586;SDS011;11971;51.148;4.104;2022-09-29T06:42:39;21.08;;;15.93;;
23586;SDS011;11971;51.148;4.104;2022-09-29T06:45:07;24.38;;;16.75;;
23586;SDS011;11971;51.148;4.104;2022-09-29T06:47:35;22.30;;;15.67;;
23586;SDS011;11971;51.148;4.104;2022-09-29T06:50:02;26.45;;;17.65;;
23586;SDS011;11971;51.148;4.104;2022-09-29T06:52:31;29.63;;;18.20;;
23586;SDS011;11971;51.148;4.104;2022-09-29T06:54:59;24.65;;;17.15;;
23586;SDS011;11971;51.148;4.104;2022-09-29T06:57:26;22.27;;;16.93;;
23586;SDS011;11971;51.148;4.104;2022-09-29T06:59:53;23.63;;;17.13;;
23586;SDS011;11971;51.148;4.104;2022-09-29T07:02:21;21.63;;;15.32;;
23586;SDS011;11971;51.148;4.104;2022-09-29T07:04:48;22.63;;;15.80;;
23586;SDS011;11971;51.148;4.104;2022-09-29T07:07:15;21.90;;;15.90;;
23586;SDS011;11971;51.148;4.104;2022-09-29T07:09:42;23.23;;;16.60;;
23586;SDS011;11971;51.148;4.104;2022-09-29T07:12:11;26.53;;;17.80;;
23586;SDS011;11971;51.148;4.104;2022-09-29T07:14:38;30.05;;;18.40;;
23586;SDS011;11971;51.148;4.104;2022-09-29T07:17:05;27.97;;;18.10;;
23586;SDS011;11971;51.148;4.104;2022-09-29T07:19:33;24.13;;;17.70;;
23586;SDS011;11971;51.148;4.104;2022-09-29T07:22:00;23.23;;;17.17;;
23586;SDS011;11971;51.148;4.104;2022-09-29T07:24:28;22.92;;;15.88;;
23586;SDS011;11971;51.148;4.104;2022-09-29T07:26:55;24.60;;;16.27;;
23586;SDS011;11971;51.148;4.104;2022-09-29T07:29:24;19.55;;;15.25;;
23586;SDS011;11971;51.148;4.104;2022-09-29T07:31:51;20.63;;;15.23;;
23586;SDS011;11971;51.148;4.104;2022-09-29T07:34:19;21.65;;;16.50;;
23586;SDS011;11971;51.148;4.104;2022-09-29T07:36:47;20.80;;;15.55;;
23586;SDS011;11971;51.148;4.104;2022-09-29T07:39:14;19.83;;;13.80;;
23586;SDS011;11971;51.148;4.104;2022-09-29T07:41:41;17.83;;;13.50;;
23586;SDS011;11971;51.148;4.104;2022-09-29T07:44:08;18.73;;;13.27;;
23586;SDS011;11971;51.148;4.104;2022-09-29T07:46:37;17.42;;;13.75;;
23586;SDS011;11971;51.148;4.104;2022-09-29T07:49:04;19.98;;;13.52;;
23586;SDS011;11971;51.148;4.104;2022-09-29T07:51:32;15.80;;;12.98;;
23586;SDS011;11971;51.148;4.104;2022-09-29T07:54:00;17.37;;;12.80;;
23586;SDS011;11971;51.148;4.104;2022-09-29T07:56:27;15.85;;;12.43;;
23586;SDS011;11971;51.148;4.104;2022-09-29T07:58:55;16.17;;;12.85;;
23586;SDS011;11971;51.148;4.104;2022-09-29T08:01:22;17.38;;;13.50;;
23586;SDS011;11971;51.148;4.104;2022-09-29T08:03:51;16.17;;;13.00;;
23586;SDS011;11971;51.148;4.104;2022-09-29T08:06:19;18.67;;;12.82;;
23586;SDS011;11971;51.148;4.104;2022-09-29T08:08:47;15.07;;;12.60;;
23586;SDS011;11971;51.148;4.104;2022-09-29T08:11:15;17.02;;;11.90;;
23586;SDS011;11971;51.148;4.104;2022-09-29T08:13:44;16.67;;;11.50;;
23586;SDS011;11971;51.148;4.104;2022-09-29T08:16:12;16.08;;;11.80;;
23586;SDS011;11971;51.148;4.104;2022-09-29T08:18:39;13.85;;;10.45;;
23586;SDS011;11971;51.148;4.104;2022-09-29T08:21:09;17.87;;;10.40;;
23586;SDS011;11971;51.148;4.104;2022-09-29T08:23:37;13.45;;;10.43;;
23586;SDS011;11971;51.148;4.104;2022-09-29T08:26:05;16.37;;;11.13;;
23586;SDS011;11971;51.148;4.104;2022-09-29T08:28:33;12.48;;;10.25;;
23586;SDS011;11971;51.148;4.104;2022-09-29T08:31:01;17.45;;;10.25;;
23586;SDS011;11971;51.148;4.104;2022-09-29T08:33:28;13.43;;;9.90;;
23586;SDS011;11971;51.148;4.104;2022-09-29T08:35:56;16.50;;;10.50;;
23586;SDS011;11971;51.148;4.104;2022-09-29T08:38:25;14.07;;;9.88;;
23586;SDS011;11971;51.148;4.104;2022-09-29T08:40:53;18.63;;;11.15;;
23586;SDS011;11971;51.148;4.104;2022-09-29T08:43:21;14.48;;;10.45;;
23586;SDS011;11971;51.148;4.104;2022-09-29T08:45:53;14.00;;;9.77;;
23586;SDS011;11971;51.148;4.104;2022-09-29T08:48:22;13.95;;;9.73;;
23586;SDS011;11971;51.148;4.104;2022-09-29T08:50:51;15.05;;;10.32;;
23586;SDS011;11971;51.148;4.104;2022-09-29T08:53:22;12.70;;;8.48;;
23586;SDS011;11971;51.148;4.104;2022-09-29T08:55:54;12.40;;;8.35;;
23586;SDS011;11971;51.148;4.104;2022-09-29T08:58:23;15.02;;;8.57;;
23586;SDS011;11971;51.148;4.104;2022-09-29T09:28:53;9.32;;;5.28;;
23586;SDS011;11971;51.148;4.104;2022-09-29T09:31:22;7.88;;;5.38;;
23586;SDS011;11971;51.148;4.104;2022-09-29T09:33:51;10.50;;;5.93;;
23586;SDS011;11971;51.148;4.104;2022-09-29T09:36:21;9.85;;;6.43;;
23586;SDS011;11971;51.148;4.104;2022-09-29T09:38:51;12.77;;;6.60;;
23586;SDS011;11971;51.148;4.104;2022-09-29T09:41:21;11.75;;;6.03;;
23586;SDS011;11971;51.148;4.104;2022-09-29T09:43:50;8.18;;;4.45;;
23586;SDS011;11971;51.148;4.104;2022-09-29T09:46:22;5.00;;;3.15;;
23586;SDS011;11971;51.148;4.104;2022-09-29T09:48:53;4.35;;;2.70;;
23586;SDS011;11971;51.148;4.104;2022-09-29T09:51:29;3.80;;;1.80;;
23586;SDS011;11971;51.148;4.104;2022-09-29T09:53:58;3.95;;;2.05;;
23586;SDS011;11971;51.148;4.104;2022-09-29T09:56:32;3.92;;;2.15;;
23586;SDS011;11971;51.148;4.104;2022-09-29T09:59:14;6.03;;;2.43;;
23586;SDS011;11971;51.148;4.104;2022-09-29T10:01:44;4.43;;;2.45;;
23586;SDS011;11971;51.148;4.104;2022-09-29T10:04:12;4.80;;;2.85;;
23586;SDS011;11971;51.148;4.104;2022-09-29T10:06:39;4.25;;;2.20;;
23586;SDS011;11971;51.148;4.104;2022-09-29T10:09:08;4.13;;;2.35;;
23586;SDS011;11971;51.148;4.104;2022-09-29T10:11:37;5.13;;;2.40;;
23586;SDS011;11971;51.148;4.104;2022-09-29T10:14:08;6.57;;;2.75;;
23586;SDS011;11971;51.148;4.104;2022-09-29T10:16:39;5.97;;;2.30;;
23586;SDS011;11971;51.148;4.104;2022-09-29T10:19:10;3.85;;;2.10;;
23586;SDS011;11971;51.148;4.104;2022-09-29T10:21:38;3.85;;;1.80;;
23586;SDS011;11971;51.148;4.104;2022-09-29T10:24:18;6.13;;;2.40;;
23586;SDS011;11971;51.148;4.104;2022-09-29T10:26:46;6.05;;;2.42;;
23586;SDS011;11971;51.148;4.104;2022-09-29T10:29:21;5.80;;;2.60;;
23586;SDS011;11971;51.148;4.104;2022-09-29T10:31:59;7.22;;;2.90;;
23586;SDS011;11971;51.148;4.104;2022-09-29T10:34:29;5.65;;;2.70;;
23586;SDS011;11971;51.148;4.104;2022-09-29T10:36:57;5.13;;;2.95;;
23586;SDS011;11971;51.148;4.104;2022-09-29T10:39:32;6.22;;;3.00;;
23586;SDS011;11971;51.148;4.104;2022-09-29T10:41:59;5.07;;;2.60;;
23586;SDS011;11971;51.148;4.104;2022-09-29T10:44:30;5.03;;;2.47;;
23586;SDS011;11971;51.148;4.104;2022-09-29T11:24:09;3.88;;;1.90;;
23586;SDS011;11971;51.148;4.104;2022-09-29T11:26:41;4.22;;;1.88;;
23586;SDS011;11971;51.148;4.104;2022-09-29T11:29:14;4.38;;;2.00;;
23586;SDS011;11971;51.148;4.104;2022-09-29T11:31:47;3.05;;;1.85;;
23586;SDS011;11971;51.148;4.104;2022-09-29T11:34:33;5.03;;;2.10;;
23586;SDS011;11971;51.148;4.104;2022-09-29T11:37:03;3.97;;;2.00;;
23586;SDS011;11971;51.148;4.104;2022-09-29T11:39:37;3.28;;;2.00;;
23586;SDS011;11971;51.148;4.104;2022-09-29T11:42:09;5.63;;;1.88;;
23586;SDS011;11971;51.148;4.104;2022-09-29T11:44:54;4.82;;;2.00;;
23586;SDS011;11971;51.148;4.104;2022-09-29T11:47:27;4.13;;;2.10;;
23586;SDS011;11971;51.148;4.104;2022-09-29T11:50:06;2.65;;;1.80;;
23586;SDS011;11971;51.148;4.104;2022-09-29T11:52:38;3.78;;;2.20;;
23586;SDS011;11971;51.148;4.104;2022-09-29T11:55:18;5.75;;;2.15;;
23586;SDS011;11971;51.148;4.104;2022-09-29T11:57:53;4.93;;;2.58;;
23586;SDS011;11971;51.148;4.104;2022-09-29T12:00:25;4.93;;;2.70;;
23586;SDS011;11971;51.148;4.104;2022-09-29T12:03:08;3.80;;;2.97;;
23586;SDS011;11971;51.148;4.104;2022-09-29T12:05:43;5.75;;;3.05;;
23586;SDS011;11971;51.148;4.104;2022-09-29T12:08:14;4.13;;;2.70;;
23586;SDS011;11971;51.148;4.104;2022-09-29T12:10:48;3.58;;;2.40;;
23586;SDS011;11971;51.148;4.104;2022-09-29T12:13:20;4.25;;;2.40;;
23586;SDS011;11971;51.148;4.104;2022-09-29T12:15:50;3.45;;;2.30;;
23586;SDS011;11971;51.148;4.104;2022-09-29T12:18:20;4.18;;;2.15;;
23586;SDS011;11971;51.148;4.104;2022-09-29T12:20:49;3.80;;;2.22;;
23586;SDS011;11971;51.148;4.104;2022-09-29T12:23:18;4.85;;;2.60;;
23586;SDS011;11971;51.148;4.104;2022-09-29T12:25:50;4.15;;;2.25;;
23586;SDS011;11971;51.148;4.104;2022-09-29T12:28:18;7.15;;;2.25;;
23586;SDS011;11971;51.148;4.104;2022-09-29T12:30:49;5.00;;;2.60;;
23586;SDS011;11971;51.148;4.104;2022-09-29T12:33:19;6.55;;;2.05;;
23586;SDS011;11971;51.148;4.104;2022-09-29T12:35:49;4.53;;;2.10;;
23586;SDS011;11971;51.148;4.104;2022-09-29T12:38:20;2.35;;;1.50;;
23586;SDS011;11971;51.148;4.104;2022-09-29T12:40:55;4.00;;;1.45;;
23586;SDS011;11971;51.148;4.104;2022-09-29T12:43:28;2.97;;;1.50;;
23586;SDS011;11971;51.148;4.104;2022-09-29T12:53:19;2.25;;;1.20;;
23586;SDS011;11971;51.148;4.104;2022-09-29T12:55:49;2.10;;;1.30;;
23586;SDS011;11971;51.148;4.104;2022-09-29T12:58:22;1.67;;;1.08;;
23586;SDS011;11971;51.148;4.104;2022-09-29T13:00:52;1.33;;;1.10;;
23586;SDS011;11971;51.148;4.104;2022-09-29T13:03:31;1.65;;;1.33;;
23586;SDS011;11971;51.148;4.104;2022-09-29T13:06:17;1.60;;;0.80;;
23586;SDS011;11971;51.148;4.104;2022-09-29T13:08:56;1.45;;;0.85;;
23586;SDS011;11971;51.148;4.104;2022-09-29T13:11:40;1.13;;;0.80;;
23586;SDS011;11971;51.148;4.104;2022-09-29T13:14:17;2.58;;;1.23;;
23586;SDS011;11971;51.148;4.104;2022-09-29T13:16:52;1.85;;;1.10;;
23586;SDS011;11971;51.148;4.104;2022-09-29T13:22:19;2.58;;;2.00;;
23586;SDS011;11971;51.148;4.104;2022-09-29T13:24:52;3.28;;;1.60;;
23586;SDS011;11971;51.148;4.104;2022-09-29T13:27:25;1.75;;;1.65;;
23586;SDS011;11971;51.148;4.104;2022-09-29T13:29:58;2.72;;;1.77;;
23586;SDS011;11971;51.148;4.104;2022-09-29T13:32:28;3.95;;;1.95;;
23586;SDS011;11971;51.148;4.104;2022-09-29T13:34:57;3.05;;;1.40;;
23586;SDS011;11971;51.148;4.104;2022-09-29T13:37:26;2.67;;;0.80;;
23586;SDS011;11971;51.148;4.104;2022-09-29T13:39:55;2.63;;;1.20;;
23586;SDS011;11971;51.148;4.104;2022-09-29T13:42:31;5.10;;;0.90;;
23586;SDS011;11971;51.148;4.104;2022-09-29T13:45:34;0.70;;;0.60;;
23586;SDS011;11971;51.148;4.104;2022-09-29T13:50:39;4.22;;;0.80;;
23586;SDS011;11971;51.148;4.104;2022-09-29T13:53:25;1.10;;;0.80;;
23586;SDS011;11971;51.148;4.104;2022-09-29T13:55:53;0.85;;;0.70;;
23586;SDS011;11971;51.148;4.104;2022-09-29T13:58:21;1.92;;;1.00;;
23586;SDS011;11971;51.148;4.104;2022-09-29T14:00:50;4.70;;;1.55;;
23586;SDS011;11971;51.148;4.104;2022-09-29T14:05:46;3.13;;;1.30;;
23586;SDS011;11971;51.148;4.104;2022-09-29T14:08:15;5.57;;;1.45;;
23586;SDS011;11971;51.148;4.104;2022-09-29T14:10:44;1.48;;;1.00;;
23586;SDS011;11971;51.148;4.104;2022-09-29T14:13:13;1.90;;;1.08;;
23586;SDS011;11971;51.148;4.104;2022-09-29T14:15:45;2.90;;;1.20;;
23586;SDS011;11971;51.148;4.104;2022-09-29T14:18:16;2.08;;;0.95;;
23586;SDS011;11971;51.148;4.104;2022-09-29T14:20:56;1.10;;;1.00;;
23586;SDS011;11971;51.148;4.104;2022-09-29T14:28:52;1.55;;;1.00;;
23586;SDS011;11971;51.148;4.104;2022-09-29T14:31:20;1.97;;;0.97;;
23586;SDS011;11971;51.148;4.104;2022-09-29T14:33:50;2.17;;;1.17;;
23586;SDS011;11971;51.148;4.104;2022-09-29T14:36:19;4.50;;;1.20;;
23586;SDS011;11971;51.148;4.104;2022-09-29T14:38:48;2.37;;;1.00;;
23586;SDS011;11971;51.148;4.104;2022-09-29T14:43:43;3.05;;;1.15;;
23586;SDS011;11971;51.148;4.104;2022-09-29T14:46:19;3.38;;;1.20;;
23586;SDS011;11971;51.148;4.104;2022-09-29T14:49:17;2.17;;;1.05;;
23586;SDS011;11971;51.148;4.104;2022-09-29T14:52:09;4.80;;;1.05;;
23586;SDS011;11971;51.148;4.104;2022-09-29T14:54:42;1.40;;;1.00;;
23586;SDS011;11971;51.148;4.104;2022-09-29T15:00:03;2.58;;;0.90;;
23586;SDS011;11971;51.148;4.104;2022-09-29T15:02:30;1.55;;;0.95;;
23586;SDS011;11971;51.148;4.104;2022-09-29T15:07:28;1.80;;;1.15;;
23586;SDS011;11971;51.148;4.104;2022-09-29T15:09:56;1.20;;;0.90;;
23586;SDS011;11971;51.148;4.104;2022-09-29T15:12:24;1.30;;;0.90;;
23586;SDS011;11971;51.148;4.104;2022-09-29T15:14:52;2.15;;;1.00;;
23586;SDS011;11971;51.148;4.104;2022-09-29T15:17:24;2.08;;;1.00;;
23586;SDS011;11971;51.148;4.104;2022-09-29T15:19:56;2.38;;;0.98;;
23586;SDS011;11971;51.148;4.104;2022-09-29T15:25:21;1.30;;;0.80;;
23586;SDS011;11971;51.148;4.104;2022-09-29T15:27:53;1.83;;;0.70;;
23586;SDS011;11971;51.148;4.104;2022-09-29T15:30:21;3.08;;;0.90;;
23586;SDS011;11971;51.148;4.104;2022-09-29T15:32:50;2.03;;;0.73;;
23586;SDS011;11971;51.148;4.104;2022-09-29T15:35:19;1.20;;;0.80;;
23586;SDS011;11971;51.148;4.104;2022-09-29T15:37:54;1.35;;;0.80;;
23586;SDS011;11971;51.148;4.104;2022-09-29T15:40:23;1.80;;;1.00;;
23586;SDS011;11971;51.148;4.104;2022-09-29T15:42:51;1.63;;;0.70;;
23586;SDS011;11971;51.148;4.104;2022-09-29T15:45:21;1.80;;;0.70;;
23586;SDS011;11971;51.148;4.104;2022-09-29T15:47:57;1.88;;;0.80;;
23586;SDS011;11971;51.148;4.104;2022-09-29T15:50:25;0.63;;;0.60;;
23586;SDS011;11971;51.148;4.104;2022-09-29T15:52:56;1.58;;;0.70;;
23586;SDS011;11971;51.148;4.104;2022-09-29T15:55:28;3.38;;;0.80;;
23586;SDS011;11971;51.148;4.104;2022-09-29T15:57:56;5.35;;;0.98;;
23586;SDS011;11971;51.148;4.104;2022-09-29T16:03:20;3.50;;;1.00;;
23586;SDS011;11971;51.148;4.104;2022-09-29T16:05:53;1.70;;;0.90;;
23586;SDS011;11971;51.148;4.104;2022-09-29T16:08:23;2.85;;;0.95;;
23586;SDS011;11971;51.148;4.104;2022-09-29T16:10:54;3.08;;;1.10;;
23586;SDS011;11971;51.148;4.104;2022-09-29T16:13:23;2.90;;;1.00;;
23586;SDS011;11971;51.148;4.104;2022-09-29T16:15:53;2.47;;;1.20;;
23586;SDS011;11971;51.148;4.104;2022-09-29T16:18:21;3.23;;;1.00;;
23586;SDS011;11971;51.148;4.104;2022-09-29T16:20:49;4.10;;;1.20;;
23586;SDS011;11971;51.148;4.104;2022-09-29T16:23:18;2.97;;;1.10;;
23586;SDS011;11971;51.148;4.104;2022-09-29T16:25:46;3.42;;;1.10;;
23586;SDS011;11971;51.148;4.104;2022-09-29T16:28:36;2.10;;;1.00;;
23586;SDS011;11971;51.148;4.104;2022-09-29T16:31:05;2.30;;;1.05;;
23586;SDS011;11971;51.148;4.104;2022-09-29T16:33:32;1.65;;;0.95;;